Virtual Norwegian is not affiliated with Norwegian Air Shuttle in any way.
If you are looking for the real "Norwegian", or you wish to book Norwegian flights, please visit Norwegian.com


We use cookies to ensure you get the best experience on our website.   ACCEPT

OMDB - DXB - Dubai (Dubai Intl)

General Info Alternate Airport
ICAO: OMDB Elevation: 62 ft ICAO: OMSJ
IATA: DXB Country: United Arab Emirates IATA: SHJ
City: Dubai Charts: Log in to view charts City: Sharjah
Name: Dubai Intl Hub: No Name Sharjah Intl
General Info
ICAO: OMDB
IATA: DXB
City: Dubai
Name: Dubai Intl
Elevation: 62 ft
Country: United Arab Emirates
Charts: Log in to view charts
Hub: No
 
Alternate Airport
ICAO: OMSJ
IATA: SHJ
City: Sharjah
Name: Sharjah Intl

Weather
160700Z 20006KT CAVOK 31/12 Q1018 NOSIG
Weather
160700Z 20006KT CAVOK 31/12 Q1018 NOSIG

Runway Info
12L
Length ILS/LOC Course
4000 m 110.10 120
12R
Length ILS/LOC Course
4447 m 109.50 120
30L
Length ILS/LOC Course
4447 m 111.30 300
30R
Length ILS/LOC Course
4000 m 110.90 300

NOTAMs
NOTAMs currently unavailable.
NOTAMs
NOTAMs currently unavailable

Route map
Airport
Airport (hub)